sensor_id;sensor_type;location;lat;lon;timestamp;P1;durP1;ratioP1;P2;durP2;ratioP2
78183;SDS011;67442;44.570;18.610;2023-05-07T00:00:37;6.18;;;3.72;;
78183;SDS011;67442;44.570;18.610;2023-05-07T00:03:05;6.03;;;3.55;;
78183;SDS011;67442;44.570;18.610;2023-05-07T00:05:32;9.93;;;3.83;;
78183;SDS011;67442;44.570;18.610;2023-05-07T00:08:04;5.05;;;3.53;;
78183;SDS011;67442;44.570;18.610;2023-05-07T00:10:31;5.20;;;3.45;;
78183;SDS011;67442;44.570;18.610;2023-05-07T00:13:02;7.22;;;3.20;;
78183;SDS011;67442;44.570;18.610;2023-05-07T00:15:30;4.78;;;3.00;;
78183;SDS011;67442;44.570;18.610;2023-05-07T00:17:57;4.57;;;3.20;;
78183;SDS011;67442;44.570;18.610;2023-05-07T00:20:28;5.65;;;3.63;;
78183;SDS011;67442;44.570;18.610;2023-05-07T00:22:55;6.55;;;3.10;;
78183;SDS011;67442;44.570;18.610;2023-05-07T00:25:22;4.70;;;3.63;;
78183;SDS011;67442;44.570;18.610;2023-05-07T00:27:54;8.27;;;4.03;;
78183;SDS011;67442;44.570;18.610;2023-05-07T00:30:30;6.38;;;3.45;;
78183;SDS011;67442;44.570;18.610;2023-05-07T00:32:58;4.88;;;3.20;;
78183;SDS011;67442;44.570;18.610;2023-05-07T00:35:25;7.10;;;3.78;;
78183;SDS011;67442;44.570;18.610;2023-05-07T00:37:54;5.10;;;3.25;;
78183;SDS011;67442;44.570;18.610;2023-05-07T00:40:25;6.07;;;3.83;;
78183;SDS011;67442;44.570;18.610;2023-05-07T00:42:52;5.32;;;3.00;;
78183;SDS011;67442;44.570;18.610;2023-05-07T00:45:26;4.68;;;3.13;;
78183;SDS011;67442;44.570;18.610;2023-05-07T00:47:54;7.70;;;3.63;;
78183;SDS011;67442;44.570;18.610;2023-05-07T00:50:23;7.20;;;3.70;;
78183;SDS011;67442;44.570;18.610;2023-05-07T00:52:52;5.00;;;3.60;;
78183;SDS011;67442;44.570;18.610;2023-05-07T00:55:18;5.10;;;3.20;;
78183;SDS011;67442;44.570;18.610;2023-05-07T00:57:49;5.20;;;3.00;;
78183;SDS011;67442;44.570;18.610;2023-05-07T01:00:16;5.07;;;3.22;;
78183;SDS011;67442;44.570;18.610;2023-05-07T01:02:43;7.28;;;3.58;;
78183;SDS011;67442;44.570;18.610;2023-05-07T01:05:12;4.20;;;2.97;;
78183;SDS011;67442;44.570;18.610;2023-05-07T01:07:42;9.23;;;3.63;;
78183;SDS011;67442;44.570;18.610;2023-05-07T01:10:09;4.25;;;2.90;;
78183;SDS011;67442;44.570;18.610;2023-05-07T01:12:38;5.10;;;3.30;;
78183;SDS011;67442;44.570;18.610;2023-05-07T01:15:10;5.25;;;3.67;;
78183;SDS011;67442;44.570;18.610;2023-05-07T01:17:39;5.80;;;3.10;;
78183;SDS011;67442;44.570;18.610;2023-05-07T01:20:07;6.95;;;3.47;;
78183;SDS011;67442;44.570;18.610;2023-05-07T01:22:37;7.20;;;3.05;;
78183;SDS011;67442;44.570;18.610;2023-05-07T01:25:04;4.88;;;3.30;;
78183;SDS011;67442;44.570;18.610;2023-05-07T01:27:34;4.68;;;3.35;;
78183;SDS011;67442;44.570;18.610;2023-05-07T01:30:02;5.07;;;3.38;;
78183;SDS011;67442;44.570;18.610;2023-05-07T01:32:43;4.72;;;2.92;;
78183;SDS011;67442;44.570;18.610;2023-05-07T01:35:22;5.95;;;3.38;;
78183;SDS011;67442;44.570;18.610;2023-05-07T01:37:57;4.95;;;3.22;;
78183;SDS011;67442;44.570;18.610;2023-05-07T01:40:27;4.30;;;2.90;;
78183;SDS011;67442;44.570;18.610;2023-05-07T01:42:55;8.15;;;3.58;;
78183;SDS011;67442;44.570;18.610;2023-05-07T01:45:26;4.57;;;2.95;;
78183;SDS011;67442;44.570;18.610;2023-05-07T01:48:01;5.45;;;3.10;;
78183;SDS011;67442;44.570;18.610;2023-05-07T01:50:29;5.13;;;2.85;;
78183;SDS011;67442;44.570;18.610;2023-05-07T01:52:57;5.78;;;3.28;;
78183;SDS011;67442;44.570;18.610;2023-05-07T01:55:24;4.35;;;2.90;;
78183;SDS011;67442;44.570;18.610;2023-05-07T01:57:53;4.57;;;3.30;;
78183;SDS011;67442;44.570;18.610;2023-05-07T02:00:20;4.80;;;3.33;;
78183;SDS011;67442;44.570;18.610;2023-05-07T02:02:49;3.67;;;2.50;;
78183;SDS011;67442;44.570;18.610;2023-05-07T02:05:17;4.75;;;3.03;;
78183;SDS011;67442;44.570;18.610;2023-05-07T02:07:44;7.32;;;3.20;;
78183;SDS011;67442;44.570;18.610;2023-05-07T02:10:11;5.22;;;3.28;;
78183;SDS011;67442;44.570;18.610;2023-05-07T02:12:39;6.18;;;3.25;;
78183;SDS011;67442;44.570;18.610;2023-05-07T02:15:08;4.80;;;3.17;;
78183;SDS011;67442;44.570;18.610;2023-05-07T02:17:39;5.80;;;3.40;;
78183;SDS011;67442;44.570;18.610;2023-05-07T02:20:24;7.13;;;3.33;;
78183;SDS011;67442;44.570;18.610;2023-05-07T02:22:52;5.55;;;3.20;;
78183;SDS011;67442;44.570;18.610;2023-05-07T02:25:19;4.20;;;2.97;;
78183;SDS011;67442;44.570;18.610;2023-05-07T02:27:47;5.60;;;3.17;;
78183;SDS011;67442;44.570;18.610;2023-05-07T02:30:14;4.95;;;2.90;;
78183;SDS011;67442;44.570;18.610;2023-05-07T02:32:42;4.68;;;3.22;;
78183;SDS011;67442;44.570;18.610;2023-05-07T02:35:09;4.22;;;2.88;;
78183;SDS011;67442;44.570;18.610;2023-05-07T02:37:36;4.45;;;3.08;;
78183;SDS011;67442;44.570;18.610;2023-05-07T02:40:03;6.55;;;3.13;;
78183;SDS011;67442;44.570;18.610;2023-05-07T02:42:33;4.32;;;2.92;;
78183;SDS011;67442;44.570;18.610;2023-05-07T02:45:01;4.25;;;3.20;;
78183;SDS011;67442;44.570;18.610;2023-05-07T02:47:29;4.15;;;3.10;;
78183;SDS011;67442;44.570;18.610;2023-05-07T02:49:56;4.53;;;3.00;;
78183;SDS011;67442;44.570;18.610;2023-05-07T02:52:23;4.70;;;3.28;;
78183;SDS011;67442;44.570;18.610;2023-05-07T02:54:54;5.03;;;3.08;;
78183;SDS011;67442;44.570;18.610;2023-05-07T02:57:22;4.00;;;2.60;;
78183;SDS011;67442;44.570;18.610;2023-05-07T02:59:49;5.70;;;2.92;;
78183;SDS011;67442;44.570;18.610;2023-05-07T03:02:16;4.00;;;2.85;;
78183;SDS011;67442;44.570;18.610;2023-05-07T03:04:43;7.25;;;2.90;;
78183;SDS011;67442;44.570;18.610;2023-05-07T03:07:11;3.63;;;2.90;;
78183;SDS011;67442;44.570;18.610;2023-05-07T03:09:38;4.43;;;2.83;;
78183;SDS011;67442;44.570;18.610;2023-05-07T03:12:05;5.15;;;3.10;;
78183;SDS011;67442;44.570;18.610;2023-05-07T03:14:37;3.97;;;2.85;;
78183;SDS011;67442;44.570;18.610;2023-05-07T03:17:04;5.38;;;2.92;;
78183;SDS011;67442;44.570;18.610;2023-05-07T03:19:31;4.65;;;2.70;;
78183;SDS011;67442;44.570;18.610;2023-05-07T03:21:59;7.00;;;3.35;;
78183;SDS011;67442;44.570;18.610;2023-05-07T03:24:26;5.00;;;2.90;;
78183;SDS011;67442;44.570;18.610;2023-05-07T03:26:57;4.05;;;2.90;;
78183;SDS011;67442;44.570;18.610;2023-05-07T03:29:26;4.75;;;3.15;;
78183;SDS011;67442;44.570;18.610;2023-05-07T03:31:57;4.53;;;3.05;;
78183;SDS011;67442;44.570;18.610;2023-05-07T03:34:25;4.07;;;2.92;;
78183;SDS011;67442;44.570;18.610;2023-05-07T03:36:56;3.55;;;2.70;;
78183;SDS011;67442;44.570;18.610;2023-05-07T03:39:23;3.70;;;2.50;;
78183;SDS011;67442;44.570;18.610;2023-05-07T03:41:55;3.90;;;2.70;;
78183;SDS011;67442;44.570;18.610;2023-05-07T03:44:22;5.70;;;2.78;;
78183;SDS011;67442;44.570;18.610;2023-05-07T03:46:53;4.68;;;2.80;;
78183;SDS011;67442;44.570;18.610;2023-05-07T03:49:20;4.10;;;2.60;;
78183;SDS011;67442;44.570;18.610;2023-05-07T03:51:47;4.05;;;2.72;;
78183;SDS011;67442;44.570;18.610;2023-05-07T03:54:19;6.78;;;3.10;;
78183;SDS011;67442;44.570;18.610;2023-05-07T03:56:46;4.30;;;2.95;;
78183;SDS011;67442;44.570;18.610;2023-05-07T03:59:13;4.10;;;2.70;;
78183;SDS011;67442;44.570;18.610;2023-05-07T04:01:41;4.30;;;2.75;;
78183;SDS011;67442;44.570;18.610;2023-05-07T04:04:08;3.95;;;2.45;;
78183;SDS011;67442;44.570;18.610;2023-05-07T04:06:35;3.53;;;2.58;;
78183;SDS011;67442;44.570;18.610;2023-05-07T04:09:03;3.90;;;2.58;;
78183;SDS011;67442;44.570;18.610;2023-05-07T04:11:30;4.45;;;2.88;;
78183;SDS011;67442;44.570;18.610;2023-05-07T04:13:57;5.22;;;2.70;;
78183;SDS011;67442;44.570;18.610;2023-05-07T04:16:25;4.20;;;2.60;;
78183;SDS011;67442;44.570;18.610;2023-05-07T04:18:52;4.30;;;2.65;;
78183;SDS011;67442;44.570;18.610;2023-05-07T04:21:19;3.58;;;2.60;;
78183;SDS011;67442;44.570;18.610;2023-05-07T04:23:47;4.78;;;2.92;;
78183;SDS011;67442;44.570;18.610;2023-05-07T04:26:14;6.25;;;2.20;;
78183;SDS011;67442;44.570;18.610;2023-05-07T04:28:45;3.55;;;2.55;;
78183;SDS011;67442;44.570;18.610;2023-05-07T04:31:12;4.05;;;2.72;;
78183;SDS011;67442;44.570;18.610;2023-05-07T04:33:40;12.27;;;2.78;;
78183;SDS011;67442;44.570;18.610;2023-05-07T04:36:07;6.00;;;2.92;;
78183;SDS011;67442;44.570;18.610;2023-05-07T04:38:38;3.25;;;2.35;;
78183;SDS011;67442;44.570;18.610;2023-05-07T04:41:06;5.25;;;2.70;;
78183;SDS011;67442;44.570;18.610;2023-05-07T04:43:35;5.20;;;2.83;;
78183;SDS011;67442;44.570;18.610;2023-05-07T04:46:02;6.93;;;2.50;;
78183;SDS011;67442;44.570;18.610;2023-05-07T04:48:32;5.00;;;2.33;;
78183;SDS011;67442;44.570;18.610;2023-05-07T04:50:59;3.60;;;2.22;;
78183;SDS011;67442;44.570;18.610;2023-05-07T04:53:27;4.18;;;2.65;;
78183;SDS011;67442;44.570;18.610;2023-05-07T04:55:57;5.50;;;2.60;;
78183;SDS011;67442;44.570;18.610;2023-05-07T04:58:23;4.38;;;2.42;;
78183;SDS011;67442;44.570;18.610;2023-05-07T05:00:50;3.58;;;2.45;;
78183;SDS011;67442;44.570;18.610;2023-05-07T05:03:17;3.15;;;2.30;;
78183;SDS011;67442;44.570;18.610;2023-05-07T05:05:45;4.65;;;2.17;;
78183;SDS011;67442;44.570;18.610;2023-05-07T05:08:12;3.40;;;2.53;;
78183;SDS011;67442;44.570;18.610;2023-05-07T05:10:39;6.07;;;2.45;;
78183;SDS011;67442;44.570;18.610;2023-05-07T05:13:08;3.78;;;2.50;;
78183;SDS011;67442;44.570;18.610;2023-05-07T05:15:35;4.18;;;2.40;;
78183;SDS011;67442;44.570;18.610;2023-05-07T05:18:01;3.75;;;2.33;;
78183;SDS011;67442;44.570;18.610;2023-05-07T05:20:29;5.72;;;2.58;;
78183;SDS011;67442;44.570;18.610;2023-05-07T05:22:57;2.80;;;2.20;;
78183;SDS011;67442;44.570;18.610;2023-05-07T05:25:28;4.35;;;2.88;;
78183;SDS011;67442;44.570;18.610;2023-05-07T05:27:56;4.95;;;2.58;;
78183;SDS011;67442;44.570;18.610;2023-05-07T05:30:27;6.22;;;2.70;;
78183;SDS011;67442;44.570;18.610;2023-05-07T05:32:54;7.13;;;2.22;;
78183;SDS011;67442;44.570;18.610;2023-05-07T05:35:26;5.80;;;2.42;;
78183;SDS011;67442;44.570;18.610;2023-05-07T05:37:53;3.17;;;2.50;;
78183;SDS011;67442;44.570;18.610;2023-05-07T05:40:21;5.38;;;2.30;;
78183;SDS011;67442;44.570;18.610;2023-05-07T05:42:48;4.45;;;2.75;;
78183;SDS011;67442;44.570;18.610;2023-05-07T05:45:15;4.38;;;2.60;;
78183;SDS011;67442;44.570;18.610;2023-05-07T05:47:42;4.57;;;2.97;;
78183;SDS011;67442;44.570;18.610;2023-05-07T05:50:10;4.70;;;2.40;;
78183;SDS011;67442;44.570;18.610;2023-05-07T05:52:36;3.40;;;2.20;;
78183;SDS011;67442;44.570;18.610;2023-05-07T05:55:04;3.67;;;2.38;;
78183;SDS011;67442;44.570;18.610;2023-05-07T05:57:32;3.92;;;2.50;;
78183;SDS011;67442;44.570;18.610;2023-05-07T06:00:00;2.80;;;1.98;;
78183;SDS011;67442;44.570;18.610;2023-05-07T06:02:28;7.03;;;2.40;;
78183;SDS011;67442;44.570;18.610;2023-05-07T06:04:55;5.68;;;2.75;;
78183;SDS011;67442;44.570;18.610;2023-05-07T06:07:22;3.85;;;2.28;;
78183;SDS011;67442;44.570;18.610;2023-05-07T06:09:53;6.10;;;2.40;;
78183;SDS011;67442;44.570;18.610;2023-05-07T06:12:21;6.55;;;2.40;;
78183;SDS011;67442;44.570;18.610;2023-05-07T06:14:51;4.75;;;2.55;;
78183;SDS011;67442;44.570;18.610;2023-05-07T06:17:21;4.60;;;2.70;;
78183;SDS011;67442;44.570;18.610;2023-05-07T06:19:49;3.55;;;2.33;;
78183;SDS011;67442;44.570;18.610;2023-05-07T06:22:16;3.83;;;2.35;;
78183;SDS011;67442;44.570;18.610;2023-05-07T06:24:43;3.80;;;2.60;;
78183;SDS011;67442;44.570;18.610;2023-05-07T06:27:14;4.25;;;2.50;;
78183;SDS011;67442;44.570;18.610;2023-05-07T06:29:42;3.47;;;2.30;;
78183;SDS011;67442;44.570;18.610;2023-05-07T06:32:12;4.85;;;2.78;;
78183;SDS011;67442;44.570;18.610;2023-05-07T06:34:40;8.32;;;2.40;;
78183;SDS011;67442;44.570;18.610;2023-05-07T06:37:10;9.23;;;2.55;;
78183;SDS011;67442;44.570;18.610;2023-05-07T06:39:37;4.00;;;2.40;;
78183;SDS011;67442;44.570;18.610;2023-05-07T06:42:08;5.28;;;2.42;;
78183;SDS011;67442;44.570;18.610;2023-05-07T06:44:36;4.75;;;2.33;;
78183;SDS011;67442;44.570;18.610;2023-05-07T06:47:03;9.02;;;2.70;;
78183;SDS011;67442;44.570;18.610;2023-05-07T06:49:30;19.30;;;5.07;;
78183;SDS011;67442;44.570;18.610;2023-05-07T06:51:58;79.97;;;14.75;;
78183;SDS011;67442;44.570;18.610;2023-05-07T06:54:25;102.50;;;17.88;;
78183;SDS011;67442;44.570;18.610;2023-05-07T06:56:53;98.07;;;19.48;;
78183;SDS011;67442;44.570;18.610;2023-05-07T06:59:20;106.55;;;19.55;;
78183;SDS011;67442;44.570;18.610;2023-05-07T07:01:47;85.13;;;16.70;;
78183;SDS011;67442;44.570;18.610;2023-05-07T07:04:18;59.92;;;12.40;;
78183;SDS011;67442;44.570;18.610;2023-05-07T07:06:51;61.55;;;13.02;;
78183;SDS011;67442;44.570;18.610;2023-05-07T07:09:19;42.65;;;10.68;;
78183;SDS011;67442;44.570;18.610;2023-05-07T07:11:47;34.67;;;8.60;;
78183;SDS011;67442;44.570;18.610;2023-05-07T07:14:14;34.63;;;8.10;;
78183;SDS011;67442;44.570;18.610;2023-05-07T07:16:41;27.42;;;7.25;;
78183;SDS011;67442;44.570;18.610;2023-05-07T07:19:09;22.02;;;6.65;;
78183;SDS011;67442;44.570;18.610;2023-05-07T07:21:36;21.45;;;6.07;;
78183;SDS011;67442;44.570;18.610;2023-05-07T07:24:04;20.55;;;5.78;;
78183;SDS011;67442;44.570;18.610;2023-05-07T07:26:32;18.20;;;6.03;;
78183;SDS011;67442;44.570;18.610;2023-05-07T07:28:59;11.55;;;5.38;;
78183;SDS011;67442;44.570;18.610;2023-05-07T07:31:30;12.23;;;5.70;;
78183;SDS011;67442;44.570;18.610;2023-05-07T07:33:58;15.73;;;5.78;;
78183;SDS011;67442;44.570;18.610;2023-05-07T07:36:26;10.60;;;5.15;;
78183;SDS011;67442;44.570;18.610;2023-05-07T07:38:56;11.73;;;5.00;;
78183;SDS011;67442;44.570;18.610;2023-05-07T07:41:23;11.50;;;4.80;;
78183;SDS011;67442;44.570;18.610;2023-05-07T07:43:50;9.65;;;5.60;;
78183;SDS011;67442;44.570;18.610;2023-05-07T07:46:16;10.57;;;4.93;;
78183;SDS011;67442;44.570;18.610;2023-05-07T07:48:44;10.63;;;5.10;;
78183;SDS011;67442;44.570;18.610;2023-05-07T07:51:11;9.80;;;5.28;;
78183;SDS011;67442;44.570;18.610;2023-05-07T07:53:38;9.35;;;4.88;;
78183;SDS011;67442;44.570;18.610;2023-05-07T07:56:10;12.02;;;5.10;;
78183;SDS011;67442;44.570;18.610;2023-05-07T07:58:37;8.52;;;4.50;;
78183;SDS011;67442;44.570;18.610;2023-05-07T08:01:08;11.45;;;4.88;;
78183;SDS011;67442;44.570;18.610;2023-05-07T08:03:37;9.52;;;4.38;;
78183;SDS011;67442;44.570;18.610;2023-05-07T08:06:05;8.27;;;5.05;;
78183;SDS011;67442;44.570;18.610;2023-05-07T08:08:36;9.63;;;5.30;;
78183;SDS011;67442;44.570;18.610;2023-05-07T08:11:03;9.77;;;4.93;;
78183;SDS011;67442;44.570;18.610;2023-05-07T08:13:34;12.73;;;4.95;;
78183;SDS011;67442;44.570;18.610;2023-05-07T08:16:02;10.13;;;5.35;;
78183;SDS011;67442;44.570;18.610;2023-05-07T08:18:34;9.43;;;4.65;;
78183;SDS011;67442;44.570;18.610;2023-05-07T08:21:02;6.72;;;4.55;;
78183;SDS011;67442;44.570;18.610;2023-05-07T08:23:28;7.00;;;4.57;;
78183;SDS011;67442;44.570;18.610;2023-05-07T08:25:56;7.40;;;4.50;;
78183;SDS011;67442;44.570;18.610;2023-05-07T08:28:22;9.52;;;5.15;;
78183;SDS011;67442;44.570;18.610;2023-05-07T08:30:50;6.60;;;4.60;;
78183;SDS011;67442;44.570;18.610;2023-05-07T08:33:21;7.63;;;4.68;;
78183;SDS011;67442;44.570;18.610;2023-05-07T08:35:49;6.45;;;4.68;;
78183;SDS011;67442;44.570;18.610;2023-05-07T08:38:20;7.22;;;4.43;;
78183;SDS011;67442;44.570;18.610;2023-05-07T08:40:50;10.18;;;4.60;;
78183;SDS011;67442;44.570;18.610;2023-05-07T08:43:18;5.78;;;4.05;;
78183;SDS011;67442;44.570;18.610;2023-05-07T08:45:45;9.18;;;4.82;;
78183;SDS011;67442;44.570;18.610;2023-05-07T08:48:16;6.68;;;4.15;;
78183;SDS011;67442;44.570;18.610;2023-05-07T08:50:46;8.68;;;4.18;;
78183;SDS011;67442;44.570;18.610;2023-05-07T08:53:18;6.85;;;4.20;;
78183;SDS011;67442;44.570;18.610;2023-05-07T08:55:46;6.57;;;4.22;;
78183;SDS011;67442;44.570;18.610;2023-05-07T08:58:14;6.18;;;4.55;;
78183;SDS011;67442;44.570;18.610;2023-05-07T09:00:41;6.32;;;4.32;;
78183;SDS011;67442;44.570;18.610;2023-05-07T09:03:08;8.10;;;4.30;;
78183;SDS011;67442;44.570;18.610;2023-05-07T09:05:38;7.57;;;4.22;;
78183;SDS011;67442;44.570;18.610;2023-05-07T09:08:06;11.30;;;4.85;;
78183;SDS011;67442;44.570;18.610;2023-05-07T09:10:37;10.82;;;4.55;;
78183;SDS011;67442;44.570;18.610;2023-05-07T09:13:04;10.95;;;4.20;;
78183;SDS011;67442;44.570;18.610;2023-05-07T09:15:32;7.18;;;4.15;;
78183;SDS011;67442;44.570;18.610;2023-05-07T09:17:59;9.63;;;4.22;;
78183;SDS011;67442;44.570;18.610;2023-05-07T09:20:26;8.02;;;4.18;;
78183;SDS011;67442;44.570;18.610;2023-05-07T09:22:59;8.50;;;4.45;;
78183;SDS011;67442;44.570;18.610;2023-05-07T09:25:28;6.43;;;4.25;;
78183;SDS011;67442;44.570;18.610;2023-05-07T09:27:55;8.93;;;4.30;;
78183;SDS011;67442;44.570;18.610;2023-05-07T09:30:26;6.45;;;4.03;;
78183;SDS011;67442;44.570;18.610;2023-05-07T09:32:56;8.85;;;4.18;;
78183;SDS011;67442;44.570;18.610;2023-05-07T09:35:23;8.65;;;4.03;;
78183;SDS011;67442;44.570;18.610;2023-05-07T09:37:53;7.47;;;3.67;;
78183;SDS011;67442;44.570;18.610;2023-05-07T09:40:30;6.22;;;4.00;;
78183;SDS011;67442;44.570;18.610;2023-05-07T09:43:08;6.65;;;4.20;;
78183;SDS011;67442;44.570;18.610;2023-05-07T09:45:42;6.55;;;4.20;;
78183;SDS011;67442;44.570;18.610;2023-05-07T09:48:09;5.63;;;3.67;;
78183;SDS011;67442;44.570;18.610;2023-05-07T09:50:43;5.78;;;4.00;;
78183;SDS011;67442;44.570;18.610;2023-05-07T09:53:17;7.05;;;4.05;;
78183;SDS011;67442;44.570;18.610;2023-05-07T09:55:45;8.70;;;3.90;;
78183;SDS011;67442;44.570;18.610;2023-05-07T09:58:13;10.13;;;4.40;;
78183;SDS011;67442;44.570;18.610;2023-05-07T10:00:45;7.82;;;4.00;;
78183;SDS011;67442;44.570;18.610;2023-05-07T10:03:13;9.77;;;4.18;;
78183;SDS011;67442;44.570;18.610;2023-05-07T10:05:40;8.88;;;4.13;;
78183;SDS011;67442;44.570;18.610;2023-05-07T10:08:14;10.88;;;3.83;;
78183;SDS011;67442;44.570;18.610;2023-05-07T10:10:42;11.88;;;4.20;;
78183;SDS011;67442;44.570;18.610;2023-05-07T10:13:10;8.73;;;4.00;;
78183;SDS011;67442;44.570;18.610;2023-05-07T10:15:37;7.15;;;4.60;;
78183;SDS011;67442;44.570;18.610;2023-05-07T10:18:05;8.93;;;3.88;;
78183;SDS011;67442;44.570;18.610;2023-05-07T10:20:33;7.97;;;3.95;;
78183;SDS011;67442;44.570;18.610;2023-05-07T10:23:03;6.88;;;4.30;;
78183;SDS011;67442;44.570;18.610;2023-05-07T10:25:32;7.95;;;4.22;;
78183;SDS011;67442;44.570;18.610;2023-05-07T10:27:59;8.63;;;4.18;;
78183;SDS011;67442;44.570;18.610;2023-05-07T10:33:22;10.85;;;3.88;;
78183;SDS011;67442;44.570;18.610;2023-05-07T10:35:52;6.53;;;3.70;;
78183;SDS011;67442;44.570;18.610;2023-05-07T10:38:28;5.57;;;3.80;;
78183;SDS011;67442;44.570;18.610;2023-05-07T10:40:56;6.22;;;3.90;;
78183;SDS011;67442;44.570;18.610;2023-05-07T10:43:22;8.55;;;4.22;;
78183;SDS011;67442;44.570;18.610;2023-05-07T10:51:34;6.18;;;4.30;;
78183;SDS011;67442;44.570;18.610;2023-05-07T10:56:37;8.38;;;4.40;;
78183;SDS011;67442;44.570;18.610;2023-05-07T11:01:57;8.02;;;4.15;;
78183;SDS011;67442;44.570;18.610;2023-05-07T11:04:25;10.88;;;4.32;;
78183;SDS011;67442;44.570;18.610;2023-05-07T11:17:33;7.03;;;4.38;;
78183;SDS011;67442;44.570;18.610;2023-05-07T11:20:04;7.50;;;4.03;;
78183;SDS011;67442;44.570;18.610;2023-05-07T11:25:02;7.00;;;4.80;;
78183;SDS011;67442;44.570;18.610;2023-05-07T11:27:29;7.60;;;4.75;;
78183;SDS011;67442;44.570;18.610;2023-05-07T11:29:56;7.55;;;4.47;;
78183;SDS011;67442;44.570;18.610;2023-05-07T11:32:30;6.60;;;4.15;;
78183;SDS011;67442;44.570;18.610;2023-05-07T11:34:59;5.25;;;4.00;;
78183;SDS011;67442;44.570;18.610;2023-05-07T11:37:30;7.05;;;4.13;;
78183;SDS011;67442;44.570;18.610;2023-05-07T11:40:04;6.20;;;4.07;;
78183;SDS011;67442;44.570;18.610;2023-05-07T11:42:36;5.65;;;4.57;;
78183;SDS011;67442;44.570;18.610;2023-05-07T11:45:08;10.10;;;5.22;;
78183;SDS011;67442;44.570;18.610;2023-05-07T11:47:41;7.53;;;4.35;;
78183;SDS011;67442;44.570;18.610;2023-05-07T11:50:08;7.68;;;4.80;;
78183;SDS011;67442;44.570;18.610;2023-05-07T11:52:36;8.07;;;4.03;;
78183;SDS011;67442;44.570;18.610;2023-05-07T11:55:04;8.30;;;4.38;;
78183;SDS011;67442;44.570;18.610;2023-05-07T11:57:33;8.20;;;4.93;;
78183;SDS011;67442;44.570;18.610;2023-05-07T12:00:04;8.25;;;4.82;;
78183;SDS011;67442;44.570;18.610;2023-05-07T12:02:35;6.80;;;4.47;;
78183;SDS011;67442;44.570;18.610;2023-05-07T12:05:06;8.20;;;4.43;;
78183;SDS011;67442;44.570;18.610;2023-05-07T12:07:38;5.75;;;4.30;;
78183;SDS011;67442;44.570;18.610;2023-05-07T12:10:05;6.57;;;4.30;;
78183;SDS011;67442;44.570;18.610;2023-05-07T12:12:39;5.15;;;4.00;;
78183;SDS011;67442;44.570;18.610;2023-05-07T12:15:15;5.93;;;3.88;;
78183;SDS011;67442;44.570;18.610;2023-05-07T12:17:46;6.20;;;4.30;;
78183;SDS011;67442;44.570;18.610;2023-05-07T12:20:14;7.30;;;4.55;;
78183;SDS011;67442;44.570;18.610;2023-05-07T12:22:41;6.18;;;4.15;;
78183;SDS011;67442;44.570;18.610;2023-05-07T12:25:09;7.45;;;4.63;;
78183;SDS011;67442;44.570;18.610;2023-05-07T12:27:37;5.22;;;3.88;;
78183;SDS011;67442;44.570;18.610;2023-05-07T12:30:04;7.18;;;4.35;;
78183;SDS011;67442;44.570;18.610;2023-05-07T12:32:36;7.18;;;4.90;;
78183;SDS011;67442;44.570;18.610;2023-05-07T12:35:05;7.55;;;4.53;;
78183;SDS011;67442;44.570;18.610;2023-05-07T12:37:32;4.70;;;4.20;;
78183;SDS011;67442;44.570;18.610;2023-05-07T12:40:08;10.32;;;4.25;;
78183;SDS011;67442;44.570;18.610;2023-05-07T12:42:36;4.68;;;4.07;;
78183;SDS011;67442;44.570;18.610;2023-05-07T12:47:38;6.85;;;4.05;;
78183;SDS011;67442;44.570;18.610;2023-05-07T12:50:09;7.13;;;4.00;;
78183;SDS011;67442;44.570;18.610;2023-05-07T12:52:39;6.30;;;4.53;;
78183;SDS011;67442;44.570;18.610;2023-05-07T12:55:12;5.25;;;4.00;;
78183;SDS011;67442;44.570;18.610;2023-05-07T12:57:41;5.63;;;3.83;;
78183;SDS011;67442;44.570;18.610;2023-05-07T13:00:11;8.07;;;4.45;;
78183;SDS011;67442;44.570;18.610;2023-05-07T13:02:40;10.32;;;4.35;;
78183;SDS011;67442;44.570;18.610;2023-05-07T13:05:12;7.63;;;4.18;;
78183;SDS011;67442;44.570;18.610;2023-05-07T13:07:39;4.70;;;3.80;;
78183;SDS011;67442;44.570;18.610;2023-05-07T13:10:10;6.35;;;4.15;;
78183;SDS011;67442;44.570;18.610;2023-05-07T13:12:37;5.75;;;4.10;;
78183;SDS011;67442;44.570;18.610;2023-05-07T13:15:04;8.82;;;4.13;;
78183;SDS011;67442;44.570;18.610;2023-05-07T13:17:32;5.75;;;4.18;;
78183;SDS011;67442;44.570;18.610;2023-05-07T13:20:00;5.60;;;4.10;;
78183;SDS011;67442;44.570;18.610;2023-05-07T13:22:27;7.25;;;4.00;;
78183;SDS011;67442;44.570;18.610;2023-05-07T13:24:54;7.60;;;4.18;;
78183;SDS011;67442;44.570;18.610;2023-05-07T13:27:25;5.65;;;3.80;;
78183;SDS011;67442;44.570;18.610;2023-05-07T13:29:58;6.95;;;4.18;;
78183;SDS011;67442;44.570;18.610;2023-05-07T13:32:26;5.85;;;4.13;;
78183;SDS011;67442;44.570;18.610;2023-05-07T13:34:53;4.82;;;3.88;;
78183;SDS011;67442;44.570;18.610;2023-05-07T13:37:21;4.88;;;4.25;;
78183;SDS011;67442;44.570;18.610;2023-05-07T13:39:48;4.53;;;3.90;;
78183;SDS011;67442;44.570;18.610;2023-05-07T13:42:15;5.20;;;4.03;;
78183;SDS011;67442;44.570;18.610;2023-05-07T13:44:47;7.15;;;3.88;;
78183;SDS011;67442;44.570;18.610;2023-05-07T13:47:15;6.15;;;4.35;;
78183;SDS011;67442;44.570;18.610;2023-05-07T13:49:45;6.38;;;3.95;;
78183;SDS011;67442;44.570;18.610;2023-05-07T13:52:15;5.43;;;3.95;;
78183;SDS011;67442;44.570;18.610;2023-05-07T13:54:43;5.20;;;4.10;;
78183;SDS011;67442;44.570;18.610;2023-05-07T13:57:10;7.82;;;4.13;;
78183;SDS011;67442;44.570;18.610;2023-05-07T13:59:38;8.23;;;4.43;;
78183;SDS011;67442;44.570;18.610;2023-05-07T14:02:09;5.43;;;4.00;;
78183;SDS011;67442;44.570;18.610;2023-05-07T14:04:36;6.43;;;3.63;;
78183;SDS011;67442;44.570;18.610;2023-05-07T14:07:03;7.10;;;3.90;;
78183;SDS011;67442;44.570;18.610;2023-05-07T14:09:30;5.30;;;3.38;;
78183;SDS011;67442;44.570;18.610;2023-05-07T14:11:58;4.63;;;3.45;;
78183;SDS011;67442;44.570;18.610;2023-05-07T14:14:29;7.63;;;4.20;;
78183;SDS011;67442;44.570;18.610;2023-05-07T14:16:56;7.05;;;4.10;;
78183;SDS011;67442;44.570;18.610;2023-05-07T14:19:24;7.22;;;3.58;;
78183;SDS011;67442;44.570;18.610;2023-05-07T14:21:55;5.53;;;4.13;;
78183;SDS011;67442;44.570;18.610;2023-05-07T14:24:23;7.93;;;3.72;;
78183;SDS011;67442;44.570;18.610;2023-05-07T14:26:50;7.78;;;3.67;;
78183;SDS011;67442;44.570;18.610;2023-05-07T14:29:18;7.25;;;3.70;;
78183;SDS011;67442;44.570;18.610;2023-05-07T14:31:45;6.90;;;3.65;;
78183;SDS011;67442;44.570;18.610;2023-05-07T14:34:12;8.07;;;3.55;;
78183;SDS011;67442;44.570;18.610;2023-05-07T14:36:40;5.28;;;3.90;;
78183;SDS011;67442;44.570;18.610;2023-05-07T14:39:08;4.45;;;3.47;;
78183;SDS011;67442;44.570;18.610;2023-05-07T14:41:35;6.63;;;4.13;;
78183;SDS011;67442;44.570;18.610;2023-05-07T14:44:03;6.40;;;4.20;;
78183;SDS011;67442;44.570;18.610;2023-05-07T14:46:31;5.82;;;4.00;;
78183;SDS011;67442;44.570;18.610;2023-05-07T14:48:58;4.82;;;3.70;;
78183;SDS011;67442;44.570;18.610;2023-05-07T14:51:25;5.63;;;4.13;;
78183;SDS011;67442;44.570;18.610;2023-05-07T14:53:53;5.63;;;4.28;;
78183;SDS011;67442;44.570;18.610;2023-05-07T14:56:21;5.82;;;3.90;;
78183;SDS011;67442;44.570;18.610;2023-05-07T14:58:48;5.80;;;3.80;;
78183;SDS011;67442;44.570;18.610;2023-05-07T15:01:20;8.05;;;3.58;;
78183;SDS011;67442;44.570;18.610;2023-05-07T15:03:47;5.45;;;3.80;;
78183;SDS011;67442;44.570;18.610;2023-05-07T15:06:14;4.43;;;3.85;;
78183;SDS011;67442;44.570;18.610;2023-05-07T15:08:41;5.80;;;3.47;;
78183;SDS011;67442;44.570;18.610;2023-05-07T15:11:09;4.60;;;3.40;;